createdAt,value
2022-10-02T00:00:21.211Z,11.11
2022-10-02T00:01:21.284Z,11.13
2022-10-02T00:02:21.188Z,11.14
2022-10-02T00:03:21.187Z,11.13
2022-10-02T00:04:21.172Z,11.14
2022-10-02T00:05:21.155Z,11.14
2022-10-02T00:06:21.155Z,11.13
2022-10-02T00:07:21.131Z,11.14
2022-10-02T00:08:24.188Z,11.11
2022-10-02T00:09:21.095Z,11.14
2022-10-02T00:10:21.083Z,11.14
2022-10-02T00:11:21.102Z,11.13
2022-10-02T00:12:21.064Z,11.14
2022-10-02T00:13:21.071Z,11.16
2022-10-02T00:14:21.050Z,11.16
2022-10-02T00:15:21.054Z,11.14
2022-10-02T00:16:21.087Z,11.14
2022-10-02T00:17:21.013Z,11.14
2022-10-02T00:18:20.994Z,11.13
2022-10-02T00:19:20.995Z,11.13
2022-10-02T00:20:20.994Z,11.13
2022-10-02T00:21:20.973Z,11.11
2022-10-02T00:22:20.954Z,11.09
2022-10-02T00:23:20.981Z,11.09
2022-10-02T00:24:20.926Z,11.09
2022-10-02T00:25:20.916Z,11.06
2022-10-02T00:26:20.938Z,11.06
2022-10-02T00:27:20.904Z,11.06
2022-10-02T00:28:20.955Z,11.06
2022-10-02T00:29:20.897Z,11.03
2022-10-02T00:30:20.873Z,11.02
2022-10-02T00:31:20.906Z,11.02
2022-10-02T00:32:20.873Z,11.02
2022-10-02T00:33:20.835Z,11.01
2022-10-02T00:34:20.816Z,10.99
2022-10-02T00:35:20.809Z,10.98
2022-10-02T00:36:20.810Z,10.98
2022-10-02T00:37:20.787Z,10.96
2022-10-02T00:38:20.785Z,10.99
2022-10-02T00:39:20.761Z,10.99
2022-10-02T00:40:20.770Z,10.99
2022-10-02T00:41:20.764Z,10.99
2022-10-02T00:42:20.729Z,10.98
2022-10-02T00:43:20.723Z,10.99
2022-10-02T00:44:20.709Z,11.01
2022-10-02T00:45:20.732Z,10.99
2022-10-02T00:46:20.745Z,10.99
2022-10-02T00:47:20.675Z,10.98
2022-10-02T00:48:20.662Z,10.96
2022-10-02T00:49:20.655Z,10.99
2022-10-02T00:50:20.640Z,10.99
2022-10-02T00:51:20.644Z,10.98
2022-10-02T00:52:20.625Z,10.96
2022-10-02T00:53:20.610Z,10.94
2022-10-02T00:54:20.596Z,10.94
2022-10-02T00:55:20.589Z,10.92
2022-10-02T00:56:20.591Z,10.89
2022-10-02T00:57:20.572Z,10.88
2022-10-02T00:58:20.552Z,10.86
2022-10-02T00:59:20.545Z,10.83
2022-10-02T01:00:20.528Z,10.83
2022-10-02T01:01:20.559Z,10.80
2022-10-02T01:02:20.594Z,10.80
2022-10-02T01:03:20.508Z,10.77
2022-10-02T01:04:20.477Z,10.76
2022-10-02T01:05:20.477Z,10.74
2022-10-02T01:06:20.466Z,10.73
2022-10-02T01:07:20.447Z,10.71
2022-10-02T01:08:20.436Z,10.73
2022-10-02T01:09:20.446Z,10.71
2022-10-02T01:10:20.450Z,10.70
2022-10-02T01:11:20.403Z,10.68
2022-10-02T01:12:20.387Z,10.65
2022-10-02T01:13:20.380Z,10.62
2022-10-02T01:14:20.372Z,10.60
2022-10-02T01:15:20.373Z,10.60
2022-10-02T01:16:20.388Z,10.59
2022-10-02T01:17:20.332Z,10.60
2022-10-02T01:18:20.341Z,10.59
2022-10-02T01:19:20.326Z,10.60
2022-10-02T01:20:20.342Z,10.60
2022-10-02T01:21:20.299Z,10.63
2022-10-02T01:22:20.275Z,10.62
2022-10-02T01:23:20.264Z,10.62
2022-10-02T01:24:20.257Z,10.65
2022-10-02T01:25:20.254Z,10.66
2022-10-02T01:26:20.233Z,10.68
2022-10-02T01:27:20.245Z,10.70
2022-10-02T01:28:20.247Z,10.70
2022-10-02T01:29:20.204Z,10.73
2022-10-02T01:30:20.204Z,10.74
2022-10-02T01:31:20.220Z,10.74
2022-10-02T01:32:20.164Z,10.76
2022-10-02T01:33:20.155Z,10.78
2022-10-02T01:34:20.136Z,10.77
2022-10-02T01:35:20.166Z,10.77
2022-10-02T01:36:20.130Z,10.77
2022-10-02T01:37:21.064Z,10.76
2022-10-02T01:38:20.109Z,10.77
2022-10-02T01:39:21.043Z,10.77
2022-10-02T01:40:20.079Z,10.80
2022-10-02T01:41:20.064Z,10.78
2022-10-02T01:42:20.049Z,10.80
2022-10-02T01:43:20.028Z,10.81
2022-10-02T01:44:20.025Z,10.83
2022-10-02T01:45:20.014Z,10.83
2022-10-02T01:46:20.018Z,10.83
2022-10-02T01:47:19.989Z,10.86
2022-10-02T01:48:19.991Z,10.86
2022-10-02T01:49:19.987Z,10.88
2022-10-02T01:50:19.957Z,10.88
2022-10-02T01:51:19.957Z,10.89
2022-10-02T01:52:19.932Z,10.89
2022-10-02T01:53:19.932Z,10.91
2022-10-02T01:54:19.907Z,10.89
2022-10-02T01:55:19.907Z,10.89
2022-10-02T01:56:19.893Z,10.91
2022-10-02T01:57:19.883Z,10.92
2022-10-02T01:58:19.883Z,10.91
2022-10-02T01:59:19.870Z,10.92
2022-10-02T02:00:19.844Z,10.94
2022-10-02T02:01:19.881Z,10.92
2022-10-02T02:02:19.841Z,10.94
2022-10-02T02:03:19.816Z,10.95
2022-10-02T02:04:19.803Z,10.98
2022-10-02T02:05:19.790Z,10.99
2022-10-02T02:06:19.786Z,11.01
2022-10-02T02:07:19.766Z,11.01
2022-10-02T02:08:19.746Z,11.02
2022-10-02T02:09:19.740Z,11.02
2022-10-02T02:10:19.751Z,11.02
2022-10-02T02:11:19.719Z,11.03
2022-10-02T02:12:19.712Z,11.01
2022-10-02T02:13:19.700Z,11.02
2022-10-02T02:14:19.687Z,11.02
2022-10-02T02:15:19.689Z,11.06
2022-10-02T02:16:19.734Z,11.06
2022-10-02T02:17:19.660Z,11.07
2022-10-02T02:18:19.638Z,11.09
2022-10-02T02:19:19.636Z,11.10
2022-10-02T02:20:19.618Z,11.09
2022-10-02T02:21:22.072Z,11.13
2022-10-02T02:22:19.601Z,11.10
2022-10-02T02:23:19.590Z,11.11
2022-10-02T02:24:19.571Z,11.10
2022-10-02T02:25:19.569Z,11.10
2022-10-02T02:26:19.561Z,11.10
2022-10-02T02:27:19.542Z,11.10
2022-10-02T02:28:19.625Z,11.10
2022-10-02T02:29:19.525Z,11.07
2022-10-02T02:30:19.505Z,11.07
2022-10-02T02:31:19.530Z,11.06
2022-10-02T02:32:19.483Z,11.06
2022-10-02T02:33:19.466Z,11.02
2022-10-02T02:34:19.452Z,11.02
2022-10-02T02:35:19.447Z,11.01
2022-10-02T02:36:19.441Z,10.98
2022-10-02T02:37:19.424Z,10.99
2022-10-02T02:38:19.410Z,10.98
2022-10-02T02:39:19.399Z,11.01
2022-10-02T02:40:19.391Z,11.01
2022-10-02T02:41:19.392Z,10.99
2022-10-02T02:42:22.678Z,10.98
2022-10-02T02:43:20.358Z,10.98
2022-10-02T02:44:19.348Z,11.01
2022-10-02T02:45:19.340Z,10.98
2022-10-02T02:46:19.319Z,10.98
2022-10-02T02:47:19.328Z,10.99
2022-10-02T02:48:19.288Z,10.99
2022-10-02T02:49:19.286Z,10.99
2022-10-02T02:50:25.927Z,11.01
2022-10-02T02:51:19.270Z,10.99
2022-10-02T02:52:19.270Z,10.99
2022-10-02T02:53:19.254Z,10.99
2022-10-02T02:54:19.235Z,10.98
2022-10-02T02:55:19.217Z,10.99
2022-10-02T02:56:19.208Z,10.96
2022-10-02T02:57:19.210Z,10.98
2022-10-02T02:58:19.200Z,10.98
2022-10-02T02:59:19.175Z,10.98
2022-10-02T03:00:19.171Z,10.98
2022-10-02T03:01:19.275Z,10.98
2022-10-02T03:02:19.205Z,10.98
2022-10-02T03:03:19.131Z,10.96
2022-10-02T03:04:19.128Z,10.96
2022-10-02T03:05:19.103Z,10.96
2022-10-02T03:06:19.114Z,10.95
2022-10-02T03:07:19.088Z,10.92
2022-10-02T03:08:19.075Z,10.94
2022-10-02T03:09:19.060Z,10.91
2022-10-02T03:10:19.054Z,10.94
2022-10-02T03:11:19.050Z,10.92
2022-10-02T03:12:19.017Z,10.94
2022-10-02T03:13:19.016Z,10.95
2022-10-02T03:14:18.997Z,10.95
2022-10-02T03:15:20.456Z,10.92
2022-10-02T03:16:19.074Z,10.92
2022-10-02T03:17:18.977Z,10.92
2022-10-02T03:18:18.982Z,10.89
2022-10-02T03:19:18.960Z,10.89
2022-10-02T03:20:18.940Z,10.91
2022-10-02T03:21:18.937Z,10.89
2022-10-02T03:22:18.920Z,10.89
2022-10-02T03:23:18.922Z,10.89
2022-10-02T03:24:18.905Z,10.88
2022-10-02T03:25:18.881Z,10.88
2022-10-02T03:26:18.871Z,10.91
2022-10-02T03:27:18.869Z,10.91
2022-10-02T03:28:37.356Z,10.89
2022-10-02T03:29:19.852Z,10.89
2022-10-02T03:30:18.825Z,10.89
2022-10-02T03:31:18.840Z,10.88
2022-10-02T03:32:18.800Z,10.88
2022-10-02T03:33:18.802Z,10.89
2022-10-02T03:34:18.785Z,10.89
2022-10-02T03:35:18.788Z,10.89
2022-10-02T03:36:18.761Z,10.89
2022-10-02T03:37:18.750Z,10.91
2022-10-02T03:38:18.732Z,10.91
2022-10-02T03:39:26.388Z,10.89
2022-10-02T03:40:19.735Z,10.89
2022-10-02T03:41:18.704Z,10.89
2022-10-02T03:42:18.680Z,10.86
2022-10-02T03:43:18.675Z,10.88
2022-10-02T03:44:18.685Z,10.88
2022-10-02T03:45:39.000Z,10.88
2022-10-02T03:46:19.674Z,10.86
2022-10-02T03:47:18.630Z,10.86
2022-10-02T03:48:18.606Z,10.88
2022-10-02T03:49:18.627Z,10.88
2022-10-02T03:50:18.610Z,10.88
2022-10-02T03:51:18.587Z,10.84
2022-10-02T03:52:19.540Z,10.84
2022-10-02T03:53:18.567Z,10.86
2022-10-02T03:54:18.575Z,10.81
2022-10-02T03:55:18.538Z,10.80
2022-10-02T03:56:18.533Z,10.78
2022-10-02T03:57:18.519Z,10.76
2022-10-02T03:58:18.508Z,10.74
2022-10-02T03:59:18.501Z,10.74
2022-10-02T04:00:18.494Z,10.74
2022-10-02T04:01:18.512Z,10.73
2022-10-02T04:02:18.460Z,10.71
2022-10-02T04:03:18.493Z,10.71
2022-10-02T04:04:18.432Z,10.70
2022-10-02T04:05:18.451Z,10.70
2022-10-02T04:06:18.430Z,10.68
2022-10-02T04:07:18.404Z,10.68
2022-10-02T04:08:18.406Z,10.65
2022-10-02T04:09:18.391Z,10.66
2022-10-02T04:10:18.371Z,10.65
2022-10-02T04:11:18.374Z,10.66
2022-10-02T04:12:18.356Z,10.66
2022-10-02T04:13:18.365Z,10.63
2022-10-02T04:14:19.275Z,10.66
2022-10-02T04:15:18.344Z,10.65
2022-10-02T04:16:18.328Z,10.65
2022-10-02T04:17:18.291Z,10.68
2022-10-02T04:18:18.296Z,10.68
2022-10-02T04:19:18.276Z,10.68
2022-10-02T04:20:18.275Z,10.68
2022-10-02T04:21:18.243Z,10.70
2022-10-02T04:22:18.236Z,10.70
2022-10-02T04:23:18.228Z,10.73
2022-10-02T04:24:18.219Z,10.71
2022-10-02T04:25:18.217Z,10.68
2022-10-02T04:26:18.192Z,10.68
2022-10-02T04:27:18.189Z,10.66
2022-10-02T04:28:18.223Z,10.66
2022-10-02T04:29:18.159Z,10.66
2022-10-02T04:30:18.159Z,10.65
2022-10-02T04:31:18.184Z,10.65
2022-10-02T04:32:18.121Z,10.62
2022-10-02T04:33:18.111Z,10.62
2022-10-02T04:34:18.106Z,10.59
2022-10-02T04:35:18.093Z,10.58
2022-10-02T04:36:18.091Z,10.58
2022-10-02T04:37:19.023Z,10.55
2022-10-02T04:38:18.072Z,10.53
2022-10-02T04:39:18.051Z,10.55
2022-10-02T04:40:18.035Z,10.53
2022-10-02T04:41:18.027Z,10.53
2022-10-02T04:42:18.013Z,10.55
2022-10-02T04:43:18.018Z,10.53
2022-10-02T04:44:17.993Z,10.52
2022-10-02T04:45:17.976Z,10.53
2022-10-02T04:46:17.974Z,10.52
2022-10-02T04:47:17.952Z,10.52
2022-10-02T04:48:17.945Z,10.51
2022-10-02T04:49:17.945Z,10.52
2022-10-02T04:50:17.915Z,10.51
2022-10-02T04:51:17.906Z,10.47
2022-10-02T04:52:17.895Z,10.46
2022-10-02T04:53:17.895Z,10.46
2022-10-02T04:54:17.887Z,10.46
2022-10-02T04:55:17.876Z,10.46
2022-10-02T04:56:17.857Z,10.51
2022-10-02T04:57:17.858Z,10.51
2022-10-02T04:58:17.841Z,10.52
2022-10-02T04:59:17.838Z,10.46
2022-10-02T05:00:17.819Z,10.43
2022-10-02T05:01:17.867Z,10.42
2022-10-02T05:02:17.971Z,10.43
2022-10-02T05:03:17.779Z,10.44
2022-10-02T05:04:17.788Z,10.44
2022-10-02T05:05:17.758Z,10.47
2022-10-02T05:06:17.742Z,10.51
2022-10-02T05:07:17.739Z,10.51
2022-10-02T05:08:17.730Z,10.51
2022-10-02T05:09:17.734Z,10.46
2022-10-02T05:10:17.715Z,10.46
2022-10-02T05:11:17.695Z,10.47
2022-10-02T05:12:17.681Z,10.46
2022-10-02T05:13:17.688Z,10.44
2022-10-02T05:14:17.653Z,10.46
2022-10-02T05:15:17.658Z,10.46
2022-10-02T05:16:17.673Z,10.47
2022-10-02T05:17:17.613Z,10.51
2022-10-02T05:18:18.186Z,10.52
2022-10-02T05:19:17.615Z,10.53
2022-10-02T05:20:17.610Z,10.55
2022-10-02T05:21:17.579Z,10.56
2022-10-02T05:22:17.581Z,10.59
2022-10-02T05:23:17.549Z,10.60
2022-10-02T05:24:17.547Z,10.62
2022-10-02T05:25:17.527Z,10.66
2022-10-02T05:26:17.528Z,10.65
2022-10-02T05:27:17.512Z,10.66
2022-10-02T05:28:17.554Z,10.66
2022-10-02T05:29:17.494Z,10.66
2022-10-02T05:30:17.478Z,10.68
2022-10-02T05:31:17.540Z,10.70
2022-10-02T05:32:17.450Z,10.68
2022-10-02T05:33:17.439Z,10.68
2022-10-02T05:34:17.446Z,10.68
2022-10-02T05:35:17.441Z,10.68
2022-10-02T05:36:17.409Z,10.68
2022-10-02T05:37:17.412Z,10.70
2022-10-02T05:38:17.388Z,10.71
2022-10-02T05:39:17.373Z,10.73
2022-10-02T05:40:17.381Z,10.71
2022-10-02T05:41:17.340Z,10.74
2022-10-02T05:42:17.347Z,10.74
2022-10-02T05:43:17.321Z,10.78
2022-10-02T05:44:17.321Z,10.80
2022-10-02T05:45:17.302Z,10.80
2022-10-02T05:46:17.360Z,10.83
2022-10-02T05:47:17.291Z,10.83
2022-10-02T05:48:17.274Z,10.86
2022-10-02T05:49:17.276Z,10.89
2022-10-02T05:50:17.247Z,10.91
2022-10-02T05:51:18.195Z,10.94
2022-10-02T05:52:17.221Z,10.95
2022-10-02T05:53:17.229Z,10.99
2022-10-02T05:54:17.238Z,11.01
2022-10-02T05:55:17.196Z,11.02
2022-10-02T05:56:18.137Z,11.02
2022-10-02T05:57:17.169Z,11.06
2022-10-02T05:58:17.171Z,11.03
2022-10-02T05:59:17.149Z,11.02
2022-10-02T06:00:17.135Z,11.02
2022-10-02T06:01:17.239Z,11.03
2022-10-02T06:02:17.195Z,11.02
2022-10-02T06:03:17.118Z,11.03
2022-10-02T06:04:17.088Z,11.03
2022-10-02T06:05:17.098Z,11.03
2022-10-02T06:06:17.066Z,11.02
2022-10-02T06:07:17.042Z,10.99
2022-10-02T06:08:17.058Z,11.01
2022-10-02T06:09:20.119Z,11.02
2022-10-02T06:10:17.042Z,11.02
2022-10-02T06:11:17.010Z,11.03
2022-10-02T06:12:17.003Z,11.09
2022-10-02T06:13:16.980Z,11.10
2022-10-02T06:14:17.004Z,11.13
2022-10-02T06:15:16.970Z,11.17
2022-10-02T06:16:17.003Z,11.20
2022-10-02T06:17:16.939Z,11.24
2022-10-02T06:18:16.928Z,11.28
2022-10-02T06:19:16.922Z,11.31
2022-10-02T06:20:16.922Z,11.34
2022-10-02T06:21:16.888Z,11.39
2022-10-02T06:22:16.916Z,11.44
2022-10-02T06:23:16.875Z,11.50
2022-10-02T06:24:16.882Z,11.56
2022-10-02T06:25:16.854Z,11.62
2022-10-02T06:26:16.860Z,11.65
2022-10-02T06:27:16.826Z,11.71
2022-10-02T06:28:16.874Z,11.75
2022-10-02T06:29:19.275Z,11.80
2022-10-02T06:30:16.799Z,11.83
2022-10-02T06:31:16.819Z,11.89
2022-10-02T06:32:17.419Z,11.93
2022-10-02T06:33:16.764Z,11.99
2022-10-02T06:34:16.747Z,12.04
2022-10-02T06:35:16.738Z,12.06
2022-10-02T06:36:16.758Z,12.09
2022-10-02T06:37:16.709Z,12.12
2022-10-02T06:38:16.718Z,12.15
2022-10-02T06:39:17.646Z,12.16
2022-10-02T06:40:16.680Z,12.19
2022-10-02T06:41:16.680Z,12.21
2022-10-02T06:42:16.668Z,12.24
2022-10-02T06:43:16.650Z,12.26
2022-10-02T06:44:16.662Z,12.27
2022-10-02T06:45:16.632Z,12.27
2022-10-02T06:46:16.724Z,12.29
2022-10-02T06:47:16.602Z,12.31
2022-10-02T06:48:16.599Z,12.33
2022-10-02T06:49:16.588Z,12.37
2022-10-02T06:50:16.593Z,12.39
2022-10-02T06:51:16.578Z,12.39
2022-10-02T06:52:16.560Z,12.42
2022-10-02T06:53:16.542Z,12.44
2022-10-02T06:54:16.542Z,12.46
2022-10-02T06:55:16.534Z,12.46
2022-10-02T06:56:16.505Z,12.48
2022-10-02T06:57:16.493Z,12.45
2022-10-02T06:58:16.482Z,12.49
2022-10-02T06:59:16.499Z,12.51
2022-10-02T07:00:16.494Z,12.49
2022-10-02T07:01:16.490Z,12.51
2022-10-02T07:02:16.472Z,12.49
2022-10-02T07:03:16.435Z,12.48
2022-10-02T07:04:16.407Z,12.48
2022-10-02T07:05:16.451Z,12.46
2022-10-02T07:06:16.387Z,12.46
2022-10-02T07:07:16.407Z,12.48
2022-10-02T07:08:16.374Z,12.48
2022-10-02T07:09:16.413Z,12.51
2022-10-02T07:10:16.353Z,12.51
2022-10-02T07:11:16.339Z,12.51
2022-10-02T07:12:16.329Z,12.52
2022-10-02T07:13:16.307Z,12.52
2022-10-02T07:14:16.326Z,12.56
2022-10-02T07:15:17.262Z,12.57
2022-10-02T07:16:16.308Z,12.60
2022-10-02T07:17:20.322Z,12.60
2022-10-02T07:18:17.303Z,12.62
2022-10-02T07:19:16.253Z,12.62
2022-10-02T07:20:16.243Z,12.62
2022-10-02T07:21:16.223Z,12.63
2022-10-02T07:22:42.867Z,12.64
2022-10-02T07:23:17.202Z,12.64
2022-10-02T07:24:16.196Z,12.66
2022-10-02T07:25:16.182Z,12.66
2022-10-02T07:26:16.180Z,12.66
2022-10-02T07:27:16.165Z,12.69
2022-10-02T07:28:16.224Z,12.71
2022-10-02T07:29:16.137Z,12.71
2022-10-02T07:30:16.125Z,12.74
2022-10-02T07:31:16.168Z,12.75
2022-10-02T07:32:16.116Z,12.78
2022-10-02T07:33:16.102Z,12.79
2022-10-02T07:34:16.079Z,12.78
2022-10-02T07:35:16.084Z,12.79
2022-10-02T07:36:16.059Z,12.79
2022-10-02T07:37:16.041Z,12.79
2022-10-02T07:38:16.037Z,12.81
2022-10-02T07:39:16.036Z,12.81
2022-10-02T07:40:16.053Z,12.84
2022-10-02T07:41:15.998Z,12.84
2022-10-02T07:42:15.988Z,12.85
2022-10-02T07:43:15.982Z,12.85
2022-10-02T07:44:15.991Z,12.88
2022-10-02T07:45:15.963Z,12.88
2022-10-02T07:46:15.994Z,12.89
2022-10-02T07:47:15.931Z,12.89
2022-10-02T07:48:15.922Z,12.92
2022-10-02T07:49:15.961Z,12.93
2022-10-02T07:50:15.911Z,12.95
2022-10-02T07:51:20.382Z,12.95
2022-10-02T07:52:16.902Z,12.93
2022-10-02T07:53:15.869Z,12.95
2022-10-02T07:54:15.890Z,12.96
2022-10-02T07:55:15.861Z,12.96
2022-10-02T07:56:15.837Z,12.99
2022-10-02T07:57:15.835Z,13.02
2022-10-02T07:58:15.875Z,13.04
2022-10-02T07:59:15.802Z,13.09
2022-10-02T08:00:15.796Z,13.14
2022-10-02T08:01:15.801Z,13.15
2022-10-02T08:02:15.817Z,13.18
2022-10-02T08:03:15.841Z,13.20
2022-10-02T08:04:15.757Z,13.21
2022-10-02T08:05:15.744Z,13.24
2022-10-02T08:06:15.740Z,13.27
2022-10-02T08:07:15.707Z,13.29
2022-10-02T08:08:15.750Z,13.27
2022-10-02T08:09:15.691Z,13.33
2022-10-02T08:10:16.661Z,13.37
2022-10-02T08:11:15.688Z,13.40
2022-10-02T08:12:15.677Z,13.46
2022-10-02T08:13:15.639Z,13.49
2022-10-02T08:14:15.638Z,13.54
2022-10-02T08:15:15.637Z,13.55
2022-10-02T08:16:15.725Z,13.55
2022-10-02T08:17:15.611Z,13.56
2022-10-02T08:18:33.623Z,13.59
2022-10-02T08:19:16.578Z,13.59
2022-10-02T08:20:15.563Z,13.62
2022-10-02T08:21:15.575Z,13.61
2022-10-02T08:22:15.559Z,13.67
2022-10-02T08:23:15.537Z,13.70
2022-10-02T08:24:15.546Z,13.73
2022-10-02T08:25:15.516Z,13.79
2022-10-02T08:26:15.523Z,13.79
2022-10-02T08:27:15.491Z,13.80
2022-10-02T08:28:15.525Z,13.81
2022-10-02T08:29:16.439Z,13.81
2022-10-02T08:30:15.459Z,13.81
2022-10-02T08:31:15.491Z,13.83
2022-10-02T08:32:15.443Z,13.84
2022-10-02T08:33:15.425Z,13.84
2022-10-02T08:34:15.427Z,13.87
2022-10-02T08:35:15.431Z,13.87
2022-10-02T08:36:15.391Z,13.88
2022-10-02T08:37:15.409Z,13.88
2022-10-02T08:38:15.370Z,13.89
2022-10-02T08:39:15.366Z,13.88
2022-10-02T08:40:15.350Z,13.89
2022-10-02T08:41:15.340Z,13.91
2022-10-02T08:42:15.338Z,13.92
2022-10-02T08:43:15.317Z,13.92
2022-10-02T08:44:15.295Z,13.91
2022-10-02T08:45:15.304Z,13.95
2022-10-02T08:46:15.344Z,13.95
2022-10-02T08:47:15.266Z,13.95
2022-10-02T08:48:15.283Z,13.96
2022-10-02T08:49:15.261Z,13.94
2022-10-02T08:50:15.234Z,13.95
2022-10-02T08:51:16.181Z,13.92
2022-10-02T08:52:15.230Z,13.91
2022-10-02T08:53:15.233Z,13.91
2022-10-02T08:54:15.199Z,13.91
2022-10-02T08:55:15.207Z,13.91
2022-10-02T08:56:19.822Z,13.91
2022-10-02T08:57:16.155Z,13.95
2022-10-02T08:58:15.170Z,13.95
2022-10-02T08:59:15.132Z,13.99
2022-10-02T09:00:15.117Z,14.01
2022-10-02T09:01:15.198Z,14.02
2022-10-02T09:02:15.143Z,14.06
2022-10-02T09:03:15.096Z,14.06
2022-10-02T09:04:15.097Z,14.07
2022-10-02T09:05:15.077Z,14.10
2022-10-02T09:06:15.057Z,14.12
2022-10-02T09:07:15.063Z,14.13
2022-10-02T09:08:15.058Z,14.14
2022-10-02T09:09:15.027Z,14.16
2022-10-02T09:10:15.012Z,14.20
2022-10-02T09:11:15.017Z,14.20
2022-10-02T09:12:14.988Z,14.25
2022-10-02T09:13:15.010Z,14.28
2022-10-02T09:14:14.970Z,14.34
2022-10-02T09:15:14.965Z,14.37
2022-10-02T09:16:15.040Z,14.44
2022-10-02T09:17:14.940Z,14.53
2022-10-02T09:18:14.934Z,14.60
2022-10-02T09:19:14.937Z,14.64
2022-10-02T09:20:14.965Z,14.65
2022-10-02T09:21:14.883Z,14.71
2022-10-02T09:22:14.891Z,14.74
2022-10-02T09:23:14.914Z,14.81
2022-10-02T09:24:14.865Z,14.87
2022-10-02T09:25:14.850Z,14.88
2022-10-02T09:26:14.836Z,14.88
2022-10-02T09:27:14.831Z,14.87
2022-10-02T09:28:14.861Z,14.88
2022-10-02T09:29:14.810Z,14.86
2022-10-02T09:30:14.893Z,14.87
2022-10-02T09:31:14.856Z,14.84
2022-10-02T09:32:14.766Z,14.83
2022-10-02T09:33:16.007Z,14.80
2022-10-02T09:34:14.758Z,14.80
2022-10-02T09:35:14.742Z,14.78
2022-10-02T09:36:14.740Z,14.75
2022-10-02T09:37:14.734Z,14.78
2022-10-02T09:38:14.723Z,14.75
2022-10-02T09:39:14.692Z,14.72
2022-10-02T09:40:14.775Z,14.69
2022-10-02T09:41:15.639Z,14.68
2022-10-02T09:42:14.670Z,14.68
2022-10-02T09:43:14.663Z,14.67
2022-10-02T09:44:14.639Z,14.67
2022-10-02T09:45:14.632Z,14.68
2022-10-02T09:46:14.727Z,14.69
2022-10-02T09:47:15.301Z,14.68
2022-10-02T09:48:14.592Z,14.68
2022-10-02T09:49:14.579Z,14.69
2022-10-02T09:50:14.577Z,14.64
2022-10-02T09:51:14.573Z,14.64
2022-10-02T09:52:14.543Z,14.64
2022-10-02T09:53:14.543Z,14.62
2022-10-02T09:54:14.548Z,14.65
2022-10-02T09:55:14.543Z,14.67
2022-10-02T09:56:14.499Z,14.71
2022-10-02T09:57:14.496Z,14.83
2022-10-02T09:58:14.486Z,14.87
2022-10-02T09:59:14.499Z,14.98
2022-10-02T10:00:14.479Z,15.02
2022-10-02T10:01:14.474Z,15.06
2022-10-02T10:02:14.527Z,15.15
2022-10-02T10:03:14.441Z,15.13
2022-10-02T10:04:14.446Z,15.15
2022-10-02T10:05:14.423Z,15.17
2022-10-02T10:06:14.401Z,15.17
2022-10-02T10:07:18.414Z,15.23
2022-10-02T10:08:15.311Z,15.27
2022-10-02T10:09:14.386Z,15.31
2022-10-02T10:10:14.363Z,15.31
2022-10-02T10:11:14.340Z,15.30
2022-10-02T10:12:14.324Z,15.31
2022-10-02T10:13:14.316Z,15.38
2022-10-02T10:14:14.319Z,15.41
2022-10-02T10:15:15.278Z,15.43
2022-10-02T10:16:14.352Z,15.48
2022-10-02T10:17:14.271Z,15.51
2022-10-02T10:18:14.256Z,15.51
2022-10-02T10:19:14.252Z,15.54
2022-10-02T10:20:14.236Z,15.63
2022-10-02T10:21:14.252Z,15.68
2022-10-02T10:22:14.243Z,15.78
2022-10-02T10:23:15.156Z,15.88
2022-10-02T10:24:14.232Z,15.97
2022-10-02T10:25:14.203Z,16.03
2022-10-02T10:26:14.174Z,16.06
2022-10-02T10:27:14.160Z,16.06
2022-10-02T10:28:14.155Z,16.07
2022-10-02T10:29:14.175Z,16.04
2022-10-02T10:30:14.117Z,16.00
2022-10-02T10:31:15.126Z,15.99
2022-10-02T10:32:14.129Z,15.99
2022-10-02T10:33:14.100Z,15.96
2022-10-02T10:34:14.077Z,15.92
2022-10-02T10:35:14.081Z,15.82
2022-10-02T10:36:14.051Z,15.82
2022-10-02T10:37:14.061Z,15.82
2022-10-02T10:38:14.031Z,15.84
2022-10-02T10:39:14.036Z,15.84
2022-10-02T10:40:14.020Z,15.81
2022-10-02T10:41:13.994Z,15.81
2022-10-02T10:42:13.990Z,15.78
2022-10-02T10:43:16.706Z,15.76
2022-10-02T10:44:13.962Z,15.70
2022-10-02T10:45:13.962Z,15.63
2022-10-02T10:46:13.983Z,15.60
2022-10-02T10:47:13.933Z,15.61
2022-10-02T10:48:13.946Z,15.64
2022-10-02T10:49:13.904Z,15.70
2022-10-02T10:50:13.933Z,15.74
2022-10-02T10:51:13.902Z,15.76
2022-10-02T10:52:13.868Z,15.74
2022-10-02T10:53:13.884Z,15.75
2022-10-02T10:54:13.867Z,15.76
2022-10-02T10:55:13.874Z,15.79
2022-10-02T10:56:13.829Z,15.81
2022-10-02T10:57:13.823Z,15.81
2022-10-02T10:58:13.818Z,15.81
2022-10-02T10:59:13.805Z,15.79
2022-10-02T11:00:13.791Z,15.82
2022-10-02T11:01:13.820Z,15.82
2022-10-02T11:02:13.836Z,15.85
2022-10-02T11:03:13.757Z,15.85
2022-10-02T11:04:13.745Z,15.88
2022-10-02T11:05:13.738Z,15.93
2022-10-02T11:06:13.719Z,15.96
2022-10-02T11:07:13.750Z,15.99
2022-10-02T11:08:13.719Z,16.01
2022-10-02T11:09:13.685Z,16.03
2022-10-02T11:10:13.667Z,16.06
2022-10-02T11:11:13.653Z,16.04
2022-10-02T11:12:13.666Z,16.00
2022-10-02T11:13:13.634Z,16.01
2022-10-02T11:14:13.636Z,16.01
2022-10-02T11:15:13.640Z,16.01
2022-10-02T11:16:13.687Z,16.00
2022-10-02T11:17:13.603Z,15.99
2022-10-02T11:18:13.592Z,16.00
2022-10-02T11:19:16.755Z,16.00
2022-10-02T11:20:14.559Z,16.00
2022-10-02T11:21:14.508Z,16.00
2022-10-02T11:22:13.533Z,16.01
2022-10-02T11:23:13.548Z,16.04
2022-10-02T11:24:13.537Z,16.06
2022-10-02T11:25:13.501Z,16.12
2022-10-02T11:26:13.529Z,16.18
2022-10-02T11:27:13.482Z,16.22
2022-10-02T11:28:13.546Z,16.23
2022-10-02T11:29:13.453Z,16.20
2022-10-02T11:30:13.451Z,16.22
2022-10-02T11:31:13.486Z,16.20
2022-10-02T11:32:13.441Z,16.18
2022-10-02T11:33:13.434Z,16.22
2022-10-02T11:34:13.469Z,16.22
2022-10-02T11:35:13.390Z,16.20
2022-10-02T11:36:13.383Z,16.20
2022-10-02T11:37:13.393Z,16.20
2022-10-02T11:38:13.367Z,16.25
2022-10-02T11:39:13.365Z,16.25
2022-10-02T11:40:13.333Z,16.23
2022-10-02T11:41:13.348Z,16.27
2022-10-02T11:42:13.338Z,16.30
2022-10-02T11:43:13.326Z,16.31
2022-10-02T11:44:13.293Z,16.31
2022-10-02T11:45:13.281Z,16.33
2022-10-02T11:46:13.310Z,16.38
2022-10-02T11:47:13.276Z,16.44
2022-10-02T11:48:13.237Z,16.48
2022-10-02T11:49:13.256Z,16.55
2022-10-02T11:50:13.218Z,16.63
2022-10-02T11:51:13.205Z,16.68
2022-10-02T11:52:13.206Z,16.73
2022-10-02T11:53:13.195Z,16.74
2022-10-02T11:54:13.188Z,16.75
2022-10-02T11:55:13.177Z,16.78
2022-10-02T11:56:13.160Z,16.81
2022-10-02T11:57:13.151Z,16.89
2022-10-02T11:58:13.147Z,16.96
2022-10-02T11:59:13.119Z,17.00
2022-10-02T12:00:13.113Z,17.04
2022-10-02T12:01:13.107Z,17.04
2022-10-02T12:02:16.367Z,17.06
2022-10-02T12:03:13.197Z,16.96
2022-10-02T12:04:13.063Z,16.90
2022-10-02T12:05:13.072Z,16.88
2022-10-02T12:06:13.044Z,16.86
2022-10-02T12:07:13.037Z,16.86
2022-10-02T12:08:13.032Z,16.88
2022-10-02T12:09:13.016Z,16.81
2022-10-02T12:10:12.986Z,16.81
2022-10-02T12:11:13.951Z,16.75
2022-10-02T12:12:12.976Z,16.75
2022-10-02T12:13:12.974Z,16.73
2022-10-02T12:14:12.985Z,16.73
2022-10-02T12:15:12.959Z,16.71
2022-10-02T12:16:12.976Z,16.71
2022-10-02T12:17:12.936Z,16.70
2022-10-02T12:18:12.906Z,16.67
2022-10-02T12:19:12.936Z,16.63
2022-10-02T12:20:12.904Z,16.60
2022-10-02T12:21:12.882Z,16.58
2022-10-02T12:22:12.882Z,16.55
2022-10-02T12:23:12.857Z,16.52
2022-10-02T12:24:12.849Z,16.52
2022-10-02T12:25:12.850Z,16.50
2022-10-02T12:26:12.810Z,16.48
2022-10-02T12:27:12.819Z,16.48
2022-10-02T12:28:12.863Z,16.48
2022-10-02T12:29:12.802Z,16.45
2022-10-02T12:30:12.773Z,16.41
2022-10-02T12:31:12.795Z,16.38
2022-10-02T12:32:12.821Z,16.38
2022-10-02T12:33:12.753Z,16.38
2022-10-02T12:34:12.713Z,16.40
2022-10-02T12:35:12.716Z,16.42
2022-10-02T12:36:12.691Z,16.42
2022-10-02T12:37:12.706Z,16.50
2022-10-02T12:38:12.694Z,16.52
2022-10-02T12:39:12.686Z,16.56
2022-10-02T12:40:12.657Z,16.59
2022-10-02T12:41:12.658Z,16.60
2022-10-02T12:42:12.630Z,16.58
2022-10-02T12:43:12.629Z,16.56
2022-10-02T12:44:12.643Z,16.55
2022-10-02T12:45:12.608Z,16.56
2022-10-02T12:46:12.677Z,16.60
2022-10-02T12:47:12.587Z,16.65
2022-10-02T12:48:12.587Z,16.70
2022-10-02T12:49:12.571Z,16.68
2022-10-02T12:50:12.550Z,16.71
2022-10-02T12:51:12.539Z,16.73
2022-10-02T12:52:12.530Z,16.70